CCA898 LEMD-ZBAA
Flight info
| Callsign | CCA898 |
|---|---|
| Flight time | N/A |
| Altitude | 34000 |
| Route | PINAR N870 SEGRE N871 TOPTU DCT TOU DCT GAI DCT MEN DCT NINUN DCT LATAM DCT ETREK DCT LTP DCT SOPLO DCT OMASI DCT KINNI DCT SOSAL DCT KORED DCT GAMSA/N0489F350 DCT KONIN DCT BEPAS DCT OKL DCT LEGAZ DCT LAGAR DCT POLON DCT BOKSU DCT LAFAT/K0909F350 DCT INKUZ DCT BENIM DCT RATIN N869 DURTI/K0922F370 N869 BAPUN P874 DIKIN M61 SUMOM P983 ABESA L158 SURUB/K0887F390 L158 TR A308 GINOM/K0898S1190 Y655 INTIK A575 LHT B458 BIKUT W69 GUVBA GUVBA4E |
| Aircraft | B789/H-SDE1E2E3FGHIJ2J3J4J5M1RWXY/LB1D1 |
Departure
| Time | 2026-05-01 14:04 |
|---|---|
| Airport | Adolfo Suárez Madrid–Barajas Airport (LEMD) |
Arrival
| Time | N/A |
|---|---|
| Airport | Beijing Capital International Airport (ZBAA) |
| Time | Latitude | Longitude | Altitude | Speed | Heading |
|---|---|---|---|---|---|
| 2026-05-01 13:32 | 40.46200 | -3.56998 | 1979 ft | 0 kts | 349° |
| 2026-05-01 13:49 | 40.46179 | -3.56991 | 1980 ft | 4 kts | 341° |
| 2026-05-01 13:49 | 40.46153 | -3.56980 | 1979 ft | 4 kts | 346° |
| 2026-05-01 13:49 | 40.46130 | -3.56977 | 1978 ft | 2 kts | 13° |
| 2026-05-01 13:49 | 40.46110 | -3.56986 | 1978 ft | 4 kts | 36° |
| 2026-05-01 13:50 | 40.46092 | -3.57010 | 1977 ft | 4 kts | 54° |
| 2026-05-01 13:50 | 40.46081 | -3.57030 | 1979 ft | 0 kts | 49° |
| 2026-05-01 13:52 | 40.46082 | -3.57028 | 1976 ft | 1 kts | 50° |
| 2026-05-01 13:52 | 40.46095 | -3.57008 | 1980 ft | 4 kts | 50° |
| 2026-05-01 13:52 | 40.46121 | -3.56966 | 1978 ft | 7 kts | 50° |
| 2026-05-01 13:53 | 40.46166 | -3.56899 | 1980 ft | 12 kts | 46° |
| 2026-05-01 13:53 | 40.46296 | -3.56714 | 1979 ft | 16 kts | 89° |
| 2026-05-01 13:53 | 40.46297 | -3.56555 | 1979 ft | 18 kts | 79° |
| 2026-05-01 13:54 | 40.46394 | -3.56495 | 1981 ft | 18 kts | 1° |
| 2026-05-01 13:54 | 40.46527 | -3.56485 | 1978 ft | 20 kts | 4° |
| 2026-05-01 13:54 | 40.46677 | -3.56473 | 1981 ft | 23 kts | 3° |
| 2026-05-01 13:54 | 40.46842 | -3.56460 | 1982 ft | 25 kts | 4° |
| 2026-05-01 13:55 | 40.47021 | -3.56455 | 1985 ft | 26 kts | 353° |
| 2026-05-01 13:55 | 40.47190 | -3.56550 | 1988 ft | 27 kts | 323° |
| 2026-05-01 13:55 | 40.47337 | -3.56700 | 1993 ft | 27 kts | 322° |
| 2026-05-01 13:55 | 40.47486 | -3.56851 | 1995 ft | 27 kts | 322° |
| 2026-05-01 13:56 | 40.47638 | -3.57006 | 2000 ft | 28 kts | 322° |
| 2026-05-01 13:56 | 40.47791 | -3.57163 | 2001 ft | 28 kts | 322° |
| 2026-05-01 13:56 | 40.47948 | -3.57320 | 2008 ft | 29 kts | 322° |
| 2026-05-01 13:56 | 40.48117 | -3.57492 | 2003 ft | 32 kts | 322° |
| 2026-05-01 13:57 | 40.48292 | -3.57670 | 1999 ft | 32 kts | 322° |
| 2026-05-01 13:57 | 40.48471 | -3.57831 | 1998 ft | 30 kts | 332° |
| 2026-05-01 13:57 | 40.48640 | -3.57925 | 2004 ft | 24 kts | 354° |
| 2026-05-01 13:57 | 40.48756 | -3.57877 | 2001 ft | 15 kts | 72° |
| 2026-05-01 13:58 | 40.48763 | -3.57727 | 1998 ft | 17 kts | 90° |
| 2026-05-01 13:58 | 40.48763 | -3.57556 | 1995 ft | 20 kts | 90° |
| 2026-05-01 13:58 | 40.48764 | -3.57359 | 1992 ft | 23 kts | 90° |
| 2026-05-01 13:58 | 40.48764 | -3.57147 | 1987 ft | 23 kts | 90° |
| 2026-05-01 13:59 | 40.48767 | -3.56924 | 1987 ft | 26 kts | 90° |
| 2026-05-01 13:59 | 40.48766 | -3.56665 | 1982 ft | 30 kts | 90° |
| 2026-05-01 13:59 | 40.48768 | -3.56382 | 1975 ft | 32 kts | 89° |
| 2026-05-01 13:59 | 40.48783 | -3.56163 | 1965 ft | 17 kts | 51° |
| 2026-05-01 14:00 | 40.48886 | -3.56138 | 1964 ft | 16 kts | 0° |
| 2026-05-01 14:00 | 40.49010 | -3.56139 | 1964 ft | 19 kts | 359° |
| 2026-05-01 14:00 | 40.49152 | -3.56140 | 1964 ft | 22 kts | 359° |
| 2026-05-01 14:00 | 40.49306 | -3.56142 | 1964 ft | 20 kts | 360° |
| 2026-05-01 14:01 | 40.49400 | -3.56109 | 1967 ft | 12 kts | 58° |
| 2026-05-01 14:01 | 40.49414 | -3.56016 | 1965 ft | 9 kts | 73° |
| 2026-05-01 14:01 | 40.49441 | -3.55959 | 1967 ft | 6 kts | 52° |
| 2026-05-01 14:01 | 40.49461 | -3.55925 | 1967 ft | 3 kts | 52° |
| 2026-05-01 14:02 | 40.49473 | -3.55905 | 1967 ft | 3 kts | 52° |
| 2026-05-01 14:02 | 40.49484 | -3.55886 | 1968 ft | 3 kts | 52° |
| 2026-05-01 14:02 | 40.49505 | -3.55836 | 1968 ft | 6 kts | 87° |
| 2026-05-01 14:02 | 40.49483 | -3.55784 | 1973 ft | 7 kts | 137° |
| 2026-05-01 14:03 | 40.49426 | -3.55727 | 1968 ft | 20 kts | 143° |
| 2026-05-01 14:03 | 40.49137 | -3.55437 | 1963 ft | 86 kts | 142° |
| 2026-05-01 14:03 | 40.48495 | -3.54782 | 1945 ft | 146 kts | 142° |
| 2026-05-01 14:03 | 40.47559 | -3.53823 | 2099 ft | 185 kts | 140° |
| 2026-05-01 14:04 | 40.46552 | -3.52775 | 3094 ft | 188 kts | 146° |
| 2026-05-01 14:04 | 40.45583 | -3.51831 | 3837 ft | 198 kts | 145° |
| 2026-05-01 14:04 | 40.44441 | -3.50677 | 4301 ft | 219 kts | 144° |
| 2026-05-01 14:04 | 40.43281 | -3.49418 | 5224 ft | 218 kts | 135° |
| 2026-05-01 14:05 | 40.42510 | -3.47606 | 5774 ft | 237 kts | 117° |
| 2026-05-01 14:05 | 40.41801 | -3.45652 | 6628 ft | 237 kts | 119° |
| 2026-05-01 14:05 | 40.41074 | -3.43688 | 7372 ft | 241 kts | 118° |
| 2026-05-01 14:05 | 40.40328 | -3.41670 | 8108 ft | 247 kts | 118° |
| 2026-05-01 14:06 | 40.39586 | -3.39658 | 8871 ft | 250 kts | 118° |
| 2026-05-01 14:06 | 40.38953 | -3.37519 | 9577 ft | 258 kts | 99° |
| 2026-05-01 14:06 | 40.39161 | -3.35175 | 10311 ft | 265 kts | 71° |
| 2026-05-01 14:06 | 40.40220 | -3.33145 | 10727 ft | 283 kts | 40° |
| 2026-05-01 14:07 | 40.42042 | -3.32066 | 11092 ft | 295 kts | 9° |
| 2026-05-01 14:07 | 40.44078 | -3.31655 | 11881 ft | 296 kts | 5° |
| 2026-05-01 14:07 | 40.46141 | -3.31370 | 12666 ft | 299 kts | 4° |
| 2026-05-01 14:08 | 40.50299 | -3.30679 | 14222 ft | 306 kts | 6° |
| 2026-05-01 14:08 | 40.52415 | -3.30305 | 14917 ft | 308 kts | 5° |
| 2026-05-01 14:08 | 40.54556 | -3.29943 | 15641 ft | 310 kts | 5° |
| 2026-05-01 14:08 | 40.56709 | -3.29581 | 16348 ft | 313 kts | 5° |
| 2026-05-01 14:09 | 40.58873 | -3.29211 | 17056 ft | 315 kts | 5° |
| 2026-05-01 14:09 | 40.61055 | -3.28836 | 17755 ft | 318 kts | 5° |
| 2026-05-01 14:09 | 40.63271 | -3.28458 | 18190 ft | 330 kts | 5° |
| 2026-05-01 14:09 | 40.65644 | -3.28057 | 18216 ft | 354 kts | 5° |
| 2026-05-01 14:10 | 40.68174 | -3.27624 | 18266 ft | 377 kts | 5° |
| 2026-05-01 14:10 | 40.70823 | -3.27168 | 18319 ft | 398 kts | 5° |
| 2026-05-01 14:10 | 40.73644 | -3.26684 | 18396 ft | 418 kts | 6° |
| 2026-05-01 14:10 | 40.76523 | -3.26188 | 18986 ft | 420 kts | 5° |
| 2026-05-01 14:11 | 40.79411 | -3.25493 | 19532 ft | 426 kts | 17° |
| 2026-05-01 14:11 | 40.84449 | -3.21375 | 20629 ft | 438 kts | 46° |
| 2026-05-01 14:11 | 40.86276 | -3.18133 | 21162 ft | 442 kts | 62° |
| 2026-05-01 14:12 | 40.87436 | -3.14399 | 21658 ft | 446 kts | 75° |
| 2026-05-01 14:12 | 40.88245 | -3.10412 | 22114 ft | 450 kts | 76° |
| 2026-05-01 14:12 | 40.89001 | -3.06375 | 22650 ft | 454 kts | 76° |
| 2026-05-01 14:12 | 40.89777 | -3.02314 | 23153 ft | 457 kts | 76° |
| 2026-05-01 14:13 | 40.90597 | -2.98223 | 23645 ft | 460 kts | 75° |
| 2026-05-01 14:13 | 40.91142 | -2.95499 | 23917 ft | 463 kts | 76° |
| 2026-05-01 14:13 | 40.92218 | -2.89964 | 24474 ft | 466 kts | 76° |
| 2026-05-01 14:13 | 40.93022 | -2.85795 | 24872 ft | 469 kts | 76° |
| 2026-05-01 14:14 | 40.93830 | -2.81653 | 25240 ft | 472 kts | 76° |
| 2026-05-01 14:14 | 40.94654 | -2.77434 | 25630 ft | 475 kts | 76° |
| 2026-05-01 14:14 | 40.95477 | -2.73182 | 26009 ft | 478 kts | 76° |
| 2026-05-01 14:14 | 40.96300 | -2.68903 | 26387 ft | 480 kts | 76° |
| 2026-05-01 14:15 | 40.97131 | -2.64593 | 26751 ft | 484 kts | 76° |
| 2026-05-01 14:15 | 40.97966 | -2.60261 | 27110 ft | 486 kts | 76° |
| 2026-05-01 14:15 | 40.98791 | -2.55964 | 27456 ft | 489 kts | 76° |
| 2026-05-01 14:15 | 40.99628 | -2.51577 | 27797 ft | 492 kts | 76° |
| 2026-05-01 14:16 | 41.00468 | -2.47163 | 28136 ft | 495 kts | 76° |
| 2026-05-01 14:16 | 41.01398 | -2.42761 | 28467 ft | 497 kts | 68° |
| 2026-05-01 14:16 | 41.02917 | -2.38651 | 28797 ft | 498 kts | 56° |
| 2026-05-01 14:16 | 41.05029 | -2.35022 | 29134 ft | 498 kts | 44° |
| 2026-05-01 14:17 | 41.07586 | -2.32011 | 29431 ft | 498 kts | 37° |
| 2026-05-01 14:17 | 41.10297 | -2.29123 | 29733 ft | 501 kts | 37° |
| 2026-05-01 14:17 | 41.13035 | -2.26235 | 30063 ft | 503 kts | 36° |
| 2026-05-01 14:17 | 41.15774 | -2.23336 | 30333 ft | 505 kts | 37° |
| 2026-05-01 14:18 | 41.18526 | -2.20395 | 30630 ft | 506 kts | 37° |
| 2026-05-01 14:18 | 41.21246 | -2.17488 | 30907 ft | 507 kts | 37° |
| 2026-05-01 14:18 | 41.24009 | -2.14546 | 31177 ft | 509 kts | 37° |
| 2026-05-01 14:18 | 41.25876 | -2.12557 | 31347 ft | 510 kts | 37° |
| 2026-05-01 14:19 | 41.29537 | -2.08643 | 31832 ft | 508 kts | 37° |
| 2026-05-01 14:19 | 41.32288 | -2.05694 | 32211 ft | 507 kts | 37° |
| 2026-05-01 14:19 | 41.35031 | -2.02755 | 32563 ft | 506 kts | 37° |
| 2026-05-01 14:19 | 41.37769 | -1.99821 | 32933 ft | 505 kts | 37° |
| 2026-05-01 14:20 | 41.40497 | -1.96892 | 33300 ft | 503 kts | 37° |